sensor_id;sensor_type;location;lat;lon;timestamp;temperature;humidity
70269;DHT22;58514;48.398;-4.274;2023-01-15T00:00:49;7.50;99.90
70269;DHT22;58514;48.398;-4.274;2023-01-15T00:03:15;7.50;99.90
70269;DHT22;58514;48.398;-4.274;2023-01-15T00:05:40;7.40;99.90
70269;DHT22;58514;48.398;-4.274;2023-01-15T00:08:06;7.40;99.90
70269;DHT22;58514;48.398;-4.274;2023-01-15T00:10:33;7.40;99.90
70269;DHT22;58514;48.398;-4.274;2023-01-15T00:12:59;7.40;99.90
70269;DHT22;58514;48.398;-4.274;2023-01-15T00:15:25;7.40;99.90
70269;DHT22;58514;48.398;-4.274;2023-01-15T00:17:50;7.30;99.90
70269;DHT22;58514;48.398;-4.274;2023-01-15T00:20:16;7.30;99.90
70269;DHT22;58514;48.398;-4.274;2023-01-15T00:22:41;7.30;99.90
70269;DHT22;58514;48.398;-4.274;2023-01-15T00:25:08;7.30;99.90
70269;DHT22;58514;48.398;-4.274;2023-01-15T00:27:52;7.30;99.90
70269;DHT22;58514;48.398;-4.274;2023-01-15T00:30:18;7.30;99.90
70269;DHT22;58514;48.398;-4.274;2023-01-15T00:32:43;7.30;99.90
70269;DHT22;58514;48.398;-4.274;2023-01-15T00:35:12;7.40;99.90
70269;DHT22;58514;48.398;-4.274;2023-01-15T00:37:38;7.30;99.90
70269;DHT22;58514;48.398;-4.274;2023-01-15T00:40:04;7.30;99.90
70269;DHT22;58514;48.398;-4.274;2023-01-15T00:42:29;7.30;99.90
70269;DHT22;58514;48.398;-4.274;2023-01-15T00:44:55;7.30;99.90
70269;DHT22;58514;48.398;-4.274;2023-01-15T00:47:21;7.30;99.90
70269;DHT22;58514;48.398;-4.274;2023-01-15T00:49:46;7.20;99.90
70269;DHT22;58514;48.398;-4.274;2023-01-15T00:52:13;7.20;99.90
70269;DHT22;58514;48.398;-4.274;2023-01-15T00:54:39;7.20;99.90
70269;DHT22;58514;48.398;-4.274;2023-01-15T00:57:04;7.10;99.90
70269;DHT22;58514;48.398;-4.274;2023-01-15T00:59:30;7.10;99.90
70269;DHT22;58514;48.398;-4.274;2023-01-15T01:01:56;7.00;99.90
70269;DHT22;58514;48.398;-4.274;2023-01-15T01:04:21;6.90;99.90
70269;DHT22;58514;48.398;-4.274;2023-01-15T01:06:47;6.90;99.90
70269;DHT22;58514;48.398;-4.274;2023-01-15T01:09:13;6.80;99.90
70269;DHT22;58514;48.398;-4.274;2023-01-15T01:11:39;6.80;99.90
70269;DHT22;58514;48.398;-4.274;2023-01-15T01:14:04;6.80;99.90
70269;DHT22;58514;48.398;-4.274;2023-01-15T01:16:33;6.80;99.90
70269;DHT22;58514;48.398;-4.274;2023-01-15T01:19:00;6.80;99.90
70269;DHT22;58514;48.398;-4.274;2023-01-15T01:21:28;6.70;99.90
70269;DHT22;58514;48.398;-4.274;2023-01-15T01:23:54;6.80;99.90
70269;DHT22;58514;48.398;-4.274;2023-01-15T01:26:22;6.70;99.90
70269;DHT22;58514;48.398;-4.274;2023-01-15T01:28:48;6.70;99.90
70269;DHT22;58514;48.398;-4.274;2023-01-15T01:31:14;6.70;99.90
70269;DHT22;58514;48.398;-4.274;2023-01-15T01:33:40;6.70;99.90
70269;DHT22;58514;48.398;-4.274;2023-01-15T01:36:05;6.70;99.90
70269;DHT22;58514;48.398;-4.274;2023-01-15T01:38:31;6.70;99.90
70269;DHT22;58514;48.398;-4.274;2023-01-15T01:40:56;6.70;99.90
70269;DHT22;58514;48.398;-4.274;2023-01-15T01:43:26;6.70;99.90
70269;DHT22;58514;48.398;-4.274;2023-01-15T01:45:52;6.60;99.90
70269;DHT22;58514;48.398;-4.274;2023-01-15T01:48:19;6.60;99.90
70269;DHT22;58514;48.398;-4.274;2023-01-15T01:50:46;6.60;99.90
70269;DHT22;58514;48.398;-4.274;2023-01-15T01:53:13;6.60;99.90
70269;DHT22;58514;48.398;-4.274;2023-01-15T01:55:40;6.60;99.90
70269;DHT22;58514;48.398;-4.274;2023-01-15T01:58:07;6.70;99.90
70269;DHT22;58514;48.398;-4.274;2023-01-15T02:00:34;6.70;99.90
70269;DHT22;58514;48.398;-4.274;2023-01-15T02:03:00;6.70;99.90
70269;DHT22;58514;48.398;-4.274;2023-01-15T02:05:31;6.70;99.90
70269;DHT22;58514;48.398;-4.274;2023-01-15T02:07:57;6.70;99.90
70269;DHT22;58514;48.398;-4.274;2023-01-15T02:10:22;6.70;99.90
70269;DHT22;58514;48.398;-4.274;2023-01-15T02:12:54;6.60;99.90
70269;DHT22;58514;48.398;-4.274;2023-01-15T02:16:04;6.60;99.90
70269;DHT22;58514;48.398;-4.274;2023-01-15T02:18:11;6.60;99.90
70269;DHT22;58514;48.398;-4.274;2023-01-15T02:20:44;6.60;99.90
70269;DHT22;58514;48.398;-4.274;2023-01-15T02:25:46;6.60;99.90
70269;DHT22;58514;48.398;-4.274;2023-01-15T02:28:24;6.50;99.90
70269;DHT22;58514;48.398;-4.274;2023-01-15T02:31:33;6.50;99.90
70269;DHT22;58514;48.398;-4.274;2023-01-15T02:33:40;6.40;99.90
70269;DHT22;58514;48.398;-4.274;2023-01-15T02:36:09;6.40;99.90
70269;DHT22;58514;48.398;-4.274;2023-01-15T02:38:40;6.30;99.90
70269;DHT22;58514;48.398;-4.274;2023-01-15T02:41:08;6.30;99.90
70269;DHT22;58514;48.398;-4.274;2023-01-15T02:43:40;6.30;99.90
70269;DHT22;58514;48.398;-4.274;2023-01-15T02:46:07;6.20;99.90
70269;DHT22;58514;48.398;-4.274;2023-01-15T02:48:34;6.10;99.90
70269;DHT22;58514;48.398;-4.274;2023-01-15T02:51:11;6.10;99.90
70269;DHT22;58514;48.398;-4.274;2023-01-15T02:53:39;6.00;99.90
70269;DHT22;58514;48.398;-4.274;2023-01-15T02:56:07;6.00;99.90
70269;DHT22;58514;48.398;-4.274;2023-01-15T02:58:34;5.90;99.90
70269;DHT22;58514;48.398;-4.274;2023-01-15T03:01:03;5.90;99.90
70269;DHT22;58514;48.398;-4.274;2023-01-15T03:06:06;5.80;99.90
70269;DHT22;58514;48.398;-4.274;2023-01-15T03:08:32;5.80;99.90
70269;DHT22;58514;48.398;-4.274;2023-01-15T03:11:11;5.80;99.90
70269;DHT22;58514;48.398;-4.274;2023-01-15T03:13:47;5.80;99.90
70269;DHT22;58514;48.398;-4.274;2023-01-15T03:24:32;5.80;99.90
70269;DHT22;58514;48.398;-4.274;2023-01-15T03:27:00;5.80;99.90
70269;DHT22;58514;48.398;-4.274;2023-01-15T03:29:27;5.80;99.90
70269;DHT22;58514;48.398;-4.274;2023-01-15T03:31:54;5.80;99.90
70269;DHT22;58514;48.398;-4.274;2023-01-15T03:34:20;5.80;99.90
70269;DHT22;58514;48.398;-4.274;2023-01-15T03:36:45;5.90;99.90
70269;DHT22;58514;48.398;-4.274;2023-01-15T03:39:11;5.90;99.90
70269;DHT22;58514;48.398;-4.274;2023-01-15T03:47:48;5.90;99.90
70269;DHT22;58514;48.398;-4.274;2023-01-15T03:57:31;5.90;99.90
70269;DHT22;58514;48.398;-4.274;2023-01-15T04:00:00;5.90;99.90
70269;DHT22;58514;48.398;-4.274;2023-01-15T04:02:27;6.00;99.90
70269;DHT22;58514;48.398;-4.274;2023-01-15T04:04:54;6.00;99.90
70269;DHT22;58514;48.398;-4.274;2023-01-15T04:07:20;6.00;99.90
70269;DHT22;58514;48.398;-4.274;2023-01-15T04:09:46;6.00;99.90
70269;DHT22;58514;48.398;-4.274;2023-01-15T04:12:12;6.00;99.90
70269;DHT22;58514;48.398;-4.274;2023-01-15T04:14:38;6.00;99.90
70269;DHT22;58514;48.398;-4.274;2023-01-15T04:17:04;6.00;99.90
70269;DHT22;58514;48.398;-4.274;2023-01-15T04:19:30;6.00;99.90
70269;DHT22;58514;48.398;-4.274;2023-01-15T04:21:55;6.10;99.90
70269;DHT22;58514;48.398;-4.274;2023-01-15T04:24:21;6.10;99.90
70269;DHT22;58514;48.398;-4.274;2023-01-15T04:26:46;6.10;99.90
70269;DHT22;58514;48.398;-4.274;2023-01-15T04:29:12;6.10;99.90
70269;DHT22;58514;48.398;-4.274;2023-01-15T04:31:38;6.10;99.90
70269;DHT22;58514;48.398;-4.274;2023-01-15T04:34:03;6.20;99.90
70269;DHT22;58514;48.398;-4.274;2023-01-15T04:36:29;6.20;99.90
70269;DHT22;58514;48.398;-4.274;2023-01-15T04:38:55;6.10;99.90
70269;DHT22;58514;48.398;-4.274;2023-01-15T04:41:22;6.20;99.90
70269;DHT22;58514;48.398;-4.274;2023-01-15T04:44:06;6.20;99.90
70269;DHT22;58514;48.398;-4.274;2023-01-15T04:49:04;6.20;99.90
70269;DHT22;58514;48.398;-4.274;2023-01-15T04:51:30;6.20;99.90
70269;DHT22;58514;48.398;-4.274;2023-01-15T04:53:55;6.20;99.90
70269;DHT22;58514;48.398;-4.274;2023-01-15T04:56:21;6.20;99.90
70269;DHT22;58514;48.398;-4.274;2023-01-15T04:58:47;6.20;99.90
70269;DHT22;58514;48.398;-4.274;2023-01-15T05:01:12;6.30;99.90
70269;DHT22;58514;48.398;-4.274;2023-01-15T05:03:38;6.30;99.90
70269;DHT22;58514;48.398;-4.274;2023-01-15T05:06:04;6.20;99.90
70269;DHT22;58514;48.398;-4.274;2023-01-15T05:08:30;6.20;99.90
70269;DHT22;58514;48.398;-4.274;2023-01-15T05:10:55;6.20;99.90
70269;DHT22;58514;48.398;-4.274;2023-01-15T05:13:25;6.20;99.90
70269;DHT22;58514;48.398;-4.274;2023-01-15T05:15:50;6.20;99.90
70269;DHT22;58514;48.398;-4.274;2023-01-15T05:18:16;6.20;99.90
70269;DHT22;58514;48.398;-4.274;2023-01-15T05:20:42;6.20;99.90
70269;DHT22;58514;48.398;-4.274;2023-01-15T05:23:07;6.10;99.90
70269;DHT22;58514;48.398;-4.274;2023-01-15T05:25:36;6.10;99.90
70269;DHT22;58514;48.398;-4.274;2023-01-15T05:28:01;6.10;99.90
70269;DHT22;58514;48.398;-4.274;2023-01-15T05:30:27;6.00;99.90
70269;DHT22;58514;48.398;-4.274;2023-01-15T05:32:53;6.00;99.90
70269;DHT22;58514;48.398;-4.274;2023-01-15T05:35:18;6.00;99.90
70269;DHT22;58514;48.398;-4.274;2023-01-15T05:37:44;6.00;99.90
70269;DHT22;58514;48.398;-4.274;2023-01-15T05:40:10;6.00;99.90
70269;DHT22;58514;48.398;-4.274;2023-01-15T05:42:35;6.00;99.90
70269;DHT22;58514;48.398;-4.274;2023-01-15T05:45:01;5.90;99.90
70269;DHT22;58514;48.398;-4.274;2023-01-15T05:47:26;6.00;99.90
70269;DHT22;58514;48.398;-4.274;2023-01-15T05:49:52;6.00;99.90
70269;DHT22;58514;48.398;-4.274;2023-01-15T05:52:18;6.00;99.90
70269;DHT22;58514;48.398;-4.274;2023-01-15T05:54:43;6.00;99.90
70269;DHT22;58514;48.398;-4.274;2023-01-15T05:57:09;6.00;99.90
70269;DHT22;58514;48.398;-4.274;2023-01-15T05:59:36;6.00;99.90
70269;DHT22;58514;48.398;-4.274;2023-01-15T06:02:01;6.00;99.90
70269;DHT22;58514;48.398;-4.274;2023-01-15T06:04:27;6.10;99.90
70269;DHT22;58514;48.398;-4.274;2023-01-15T06:06:53;6.10;99.90
70269;DHT22;58514;48.398;-4.274;2023-01-15T06:09:19;6.10;99.90
70269;DHT22;58514;48.398;-4.274;2023-01-15T06:11:44;6.10;99.90
70269;DHT22;58514;48.398;-4.274;2023-01-15T06:14:11;6.10;99.90
70269;DHT22;58514;48.398;-4.274;2023-01-15T06:16:37;6.20;99.90
70269;DHT22;58514;48.398;-4.274;2023-01-15T06:19:04;6.10;99.90
70269;DHT22;58514;48.398;-4.274;2023-01-15T06:21:31;6.20;99.90
70269;DHT22;58514;48.398;-4.274;2023-01-15T06:23:56;6.20;99.90
70269;DHT22;58514;48.398;-4.274;2023-01-15T06:26:22;6.20;99.90
70269;DHT22;58514;48.398;-4.274;2023-01-15T06:28:48;6.20;99.90
70269;DHT22;58514;48.398;-4.274;2023-01-15T06:31:14;6.30;99.90
70269;DHT22;58514;48.398;-4.274;2023-01-15T06:33:41;6.30;99.90
70269;DHT22;58514;48.398;-4.274;2023-01-15T06:36:17;6.30;99.90
70269;DHT22;58514;48.398;-4.274;2023-01-15T06:38:43;6.30;99.90
70269;DHT22;58514;48.398;-4.274;2023-01-15T06:41:11;6.30;99.90
70269;DHT22;58514;48.398;-4.274;2023-01-15T06:43:55;6.30;99.90
70269;DHT22;58514;48.398;-4.274;2023-01-15T06:46:41;6.30;99.90
70269;DHT22;58514;48.398;-4.274;2023-01-15T06:49:26;6.20;99.90
70269;DHT22;58514;48.398;-4.274;2023-01-15T06:51:51;6.20;99.90
70269;DHT22;58514;48.398;-4.274;2023-01-15T06:54:17;6.20;99.90
70269;DHT22;58514;48.398;-4.274;2023-01-15T06:56:42;6.20;99.90
70269;DHT22;58514;48.398;-4.274;2023-01-15T06:59:08;6.20;99.90
70269;DHT22;58514;48.398;-4.274;2023-01-15T07:01:33;6.20;99.90
70269;DHT22;58514;48.398;-4.274;2023-01-15T07:03:59;6.20;99.90
70269;DHT22;58514;48.398;-4.274;2023-01-15T07:06:24;6.20;99.90
70269;DHT22;58514;48.398;-4.274;2023-01-15T07:08:51;6.20;99.90
70269;DHT22;58514;48.398;-4.274;2023-01-15T07:11:16;6.20;99.90
70269;DHT22;58514;48.398;-4.274;2023-01-15T07:13:42;6.10;99.90
70269;DHT22;58514;48.398;-4.274;2023-01-15T07:16:08;6.10;99.90
70269;DHT22;58514;48.398;-4.274;2023-01-15T07:18:51;6.10;99.90
70269;DHT22;58514;48.398;-4.274;2023-01-15T07:21:17;6.10;99.90
70269;DHT22;58514;48.398;-4.274;2023-01-15T07:23:43;6.00;99.90
70269;DHT22;58514;48.398;-4.274;2023-01-15T07:26:08;6.00;99.90
70269;DHT22;58514;48.398;-4.274;2023-01-15T07:28:34;6.00;99.90
70269;DHT22;58514;48.398;-4.274;2023-01-15T07:30:59;5.90;99.90
70269;DHT22;58514;48.398;-4.274;2023-01-15T07:33:25;5.90;99.90
70269;DHT22;58514;48.398;-4.274;2023-01-15T07:35:50;5.80;99.90
70269;DHT22;58514;48.398;-4.274;2023-01-15T07:38:16;5.80;99.90
70269;DHT22;58514;48.398;-4.274;2023-01-15T07:40:41;5.80;99.90
70269;DHT22;58514;48.398;-4.274;2023-01-15T07:43:07;5.80;99.90
70269;DHT22;58514;48.398;-4.274;2023-01-15T07:45:51;5.80;99.90
70269;DHT22;58514;48.398;-4.274;2023-01-15T07:48:35;5.70;99.90
70269;DHT22;58514;48.398;-4.274;2023-01-15T07:51:20;5.70;99.90
70269;DHT22;58514;48.398;-4.274;2023-01-15T07:53:45;5.80;99.90
70269;DHT22;58514;48.398;-4.274;2023-01-15T07:56:11;5.80;99.90
70269;DHT22;58514;48.398;-4.274;2023-01-15T07:58:36;5.80;99.90
70269;DHT22;58514;48.398;-4.274;2023-01-15T08:01:02;5.80;99.90
70269;DHT22;58514;48.398;-4.274;2023-01-15T08:03:28;5.80;99.90
70269;DHT22;58514;48.398;-4.274;2023-01-15T08:05:53;5.80;99.90
70269;DHT22;58514;48.398;-4.274;2023-01-15T08:08:19;5.80;99.90
70269;DHT22;58514;48.398;-4.274;2023-01-15T08:10:44;5.80;99.90
70269;DHT22;58514;48.398;-4.274;2023-01-15T08:13:29;5.80;99.90
70269;DHT22;58514;48.398;-4.274;2023-01-15T08:16:13;5.80;99.90
70269;DHT22;58514;48.398;-4.274;2023-01-15T08:18:39;5.80;99.90
70269;DHT22;58514;48.398;-4.274;2023-01-15T08:21:05;5.80;99.90
70269;DHT22;58514;48.398;-4.274;2023-01-15T08:23:30;5.80;99.90
70269;DHT22;58514;48.398;-4.274;2023-01-15T08:25:59;5.80;99.90
70269;DHT22;58514;48.398;-4.274;2023-01-15T08:28:25;5.80;99.90
70269;DHT22;58514;48.398;-4.274;2023-01-15T08:30:51;5.80;99.90
70269;DHT22;58514;48.398;-4.274;2023-01-15T08:33:17;5.80;99.90
70269;DHT22;58514;48.398;-4.274;2023-01-15T08:35:43;5.80;99.90
70269;DHT22;58514;48.398;-4.274;2023-01-15T08:38:08;5.80;99.90
70269;DHT22;58514;48.398;-4.274;2023-01-15T08:40:34;5.70;99.90
70269;DHT22;58514;48.398;-4.274;2023-01-15T08:43:20;5.70;99.90
70269;DHT22;58514;48.398;-4.274;2023-01-15T08:45:45;5.70;99.90
70269;DHT22;58514;48.398;-4.274;2023-01-15T08:48:11;5.80;99.90
70269;DHT22;58514;48.398;-4.274;2023-01-15T08:50:36;5.80;99.90
70269;DHT22;58514;48.398;-4.274;2023-01-15T08:53:02;5.80;99.90
70269;DHT22;58514;48.398;-4.274;2023-01-15T08:55:28;5.80;99.90
70269;DHT22;58514;48.398;-4.274;2023-01-15T08:57:53;5.80;99.90
70269;DHT22;58514;48.398;-4.274;2023-01-15T09:00:19;5.80;99.90
70269;DHT22;58514;48.398;-4.274;2023-01-15T09:02:45;5.90;99.90
70269;DHT22;58514;48.398;-4.274;2023-01-15T09:05:11;5.90;99.90
70269;DHT22;58514;48.398;-4.274;2023-01-15T09:07:37;5.90;99.90
70269;DHT22;58514;48.398;-4.274;2023-01-15T09:10:02;6.00;99.90
70269;DHT22;58514;48.398;-4.274;2023-01-15T09:12:28;6.00;99.90
70269;DHT22;58514;48.398;-4.274;2023-01-15T09:14:54;6.00;99.90
70269;DHT22;58514;48.398;-4.274;2023-01-15T09:17:20;6.00;99.90
70269;DHT22;58514;48.398;-4.274;2023-01-15T09:19:46;6.00;99.90
70269;DHT22;58514;48.398;-4.274;2023-01-15T09:22:11;6.10;99.90
70269;DHT22;58514;48.398;-4.274;2023-01-15T09:24:37;6.10;99.90
70269;DHT22;58514;48.398;-4.274;2023-01-15T09:27:03;6.10;99.90
70269;DHT22;58514;48.398;-4.274;2023-01-15T09:29:28;6.20;99.90
70269;DHT22;58514;48.398;-4.274;2023-01-15T09:31:54;6.10;99.90
70269;DHT22;58514;48.398;-4.274;2023-01-15T09:34:19;6.10;99.90
70269;DHT22;58514;48.398;-4.274;2023-01-15T09:36:45;6.10;99.90
70269;DHT22;58514;48.398;-4.274;2023-01-15T09:39:10;6.10;99.90
70269;DHT22;58514;48.398;-4.274;2023-01-15T09:47:13;6.10;99.90
70269;DHT22;58514;48.398;-4.274;2023-01-15T09:52:27;6.10;99.90
70269;DHT22;58514;48.398;-4.274;2023-01-15T09:57:21;6.20;99.90
70269;DHT22;58514;48.398;-4.274;2023-01-15T09:59:48;6.20;99.90
70269;DHT22;58514;48.398;-4.274;2023-01-15T10:04:41;6.20;99.90
70269;DHT22;58514;48.398;-4.274;2023-01-15T10:07:12;6.30;99.90
70269;DHT22;58514;48.398;-4.274;2023-01-15T10:09:42;6.30;99.90
70269;DHT22;58514;48.398;-4.274;2023-01-15T10:12:16;6.40;99.90
70269;DHT22;58514;48.398;-4.274;2023-01-15T10:17:52;6.50;99.90
70269;DHT22;58514;48.398;-4.274;2023-01-15T10:22:59;6.60;99.90
70269;DHT22;58514;48.398;-4.274;2023-01-15T10:25:34;6.60;99.90
70269;DHT22;58514;48.398;-4.274;2023-01-15T10:28:04;6.70;99.90
70269;DHT22;58514;48.398;-4.274;2023-01-15T10:30:36;6.80;99.90
70269;DHT22;58514;48.398;-4.274;2023-01-15T10:33:10;6.80;99.90
70269;DHT22;58514;48.398;-4.274;2023-01-15T10:36:00;6.90;99.90
70269;DHT22;58514;48.398;-4.274;2023-01-15T10:38:31;7.00;99.90
70269;DHT22;58514;48.398;-4.274;2023-01-15T10:43:27;7.20;99.90
70269;DHT22;58514;48.398;-4.274;2023-01-15T10:45:57;7.40;99.90
70269;DHT22;58514;48.398;-4.274;2023-01-15T10:48:34;7.40;99.90
70269;DHT22;58514;48.398;-4.274;2023-01-15T10:51:05;7.50;99.90
70269;DHT22;58514;48.398;-4.274;2023-01-15T10:56:12;7.60;99.90
70269;DHT22;58514;48.398;-4.274;2023-01-15T10:59:43;7.60;99.90
70269;DHT22;58514;48.398;-4.274;2023-01-15T11:01:36;7.70;99.90
70269;DHT22;58514;48.398;-4.274;2023-01-15T11:04:02;7.70;99.90
70269;DHT22;58514;48.398;-4.274;2023-01-15T11:06:28;7.70;99.90
70269;DHT22;58514;48.398;-4.274;2023-01-15T11:08:55;7.70;99.90
70269;DHT22;58514;48.398;-4.274;2023-01-15T11:11:34;7.80;99.90
70269;DHT22;58514;48.398;-4.274;2023-01-15T11:14:30;7.90;99.90
70269;DHT22;58514;48.398;-4.274;2023-01-15T11:17:14;7.90;99.90
70269;DHT22;58514;48.398;-4.274;2023-01-15T11:19:58;8.00;99.90
70269;DHT22;58514;48.398;-4.274;2023-01-15T11:22:24;8.20;99.90
70269;DHT22;58514;48.398;-4.274;2023-01-15T11:24:53;8.30;99.90
70269;DHT22;58514;48.398;-4.274;2023-01-15T11:27:21;8.30;99.90
70269;DHT22;58514;48.398;-4.274;2023-01-15T11:29:51;8.40;99.90
70269;DHT22;58514;48.398;-4.274;2023-01-15T11:34:56;8.60;99.90
70269;DHT22;58514;48.398;-4.274;2023-01-15T11:37:22;8.60;99.90
70269;DHT22;58514;48.398;-4.274;2023-01-15T11:39:51;8.80;99.90
70269;DHT22;58514;48.398;-4.274;2023-01-15T11:42:17;8.80;99.90
70269;DHT22;58514;48.398;-4.274;2023-01-15T11:45:09;8.80;99.90
70269;DHT22;58514;48.398;-4.274;2023-01-15T11:47:54;8.80;99.90
70269;DHT22;58514;48.398;-4.274;2023-01-15T11:53:23;8.80;99.90
70269;DHT22;58514;48.398;-4.274;2023-01-15T11:55:54;8.80;99.90
70269;DHT22;58514;48.398;-4.274;2023-01-15T11:58:20;8.80;99.90
70269;DHT22;58514;48.398;-4.274;2023-01-15T12:00:49;8.80;99.90
70269;DHT22;58514;48.398;-4.274;2023-01-15T12:03:18;8.80;99.90
70269;DHT22;58514;48.398;-4.274;2023-01-15T12:05:45;8.80;99.90
70269;DHT22;58514;48.398;-4.274;2023-01-15T12:08:18;8.80;99.90
70269;DHT22;58514;48.398;-4.274;2023-01-15T12:10:51;8.70;99.90
70269;DHT22;58514;48.398;-4.274;2023-01-15T12:18:44;8.40;99.90
70269;DHT22;58514;48.398;-4.274;2023-01-15T12:31:20;8.30;99.90
70269;DHT22;58514;48.398;-4.274;2023-01-15T12:38:53;8.40;99.90
70269;DHT22;58514;48.398;-4.274;2023-01-15T12:44:19;8.70;99.90
70269;DHT22;58514;48.398;-4.274;2023-01-15T12:47:05;8.90;99.90
70269;DHT22;58514;48.398;-4.274;2023-01-15T12:49:34;9.10;99.90
70269;DHT22;58514;48.398;-4.274;2023-01-15T12:54:27;9.40;99.90
70269;DHT22;58514;48.398;-4.274;2023-01-15T12:57:37;9.40;99.90
70269;DHT22;58514;48.398;-4.274;2023-01-15T12:59:46;9.40;99.90
70269;DHT22;58514;48.398;-4.274;2023-01-15T13:02:20;9.50;99.90
70269;DHT22;58514;48.398;-4.274;2023-01-15T13:04:47;9.50;99.90
70269;DHT22;58514;48.398;-4.274;2023-01-15T13:09:43;9.30;99.90
70269;DHT22;58514;48.398;-4.274;2023-01-15T13:12:13;9.30;99.90
70269;DHT22;58514;48.398;-4.274;2023-01-15T13:14:39;9.20;99.90
70269;DHT22;58514;48.398;-4.274;2023-01-15T13:22:36;9.00;99.90
70269;DHT22;58514;48.398;-4.274;2023-01-15T13:28:01;8.70;99.90
70269;DHT22;58514;48.398;-4.274;2023-01-15T13:33:22;8.60;99.90
70269;DHT22;58514;48.398;-4.274;2023-01-15T13:35:50;8.50;99.90
70269;DHT22;58514;48.398;-4.274;2023-01-15T13:38:17;8.40;99.90
70269;DHT22;58514;48.398;-4.274;2023-01-15T13:40:45;8.40;99.90
70269;DHT22;58514;48.398;-4.274;2023-01-15T13:45:59;8.30;99.90
70269;DHT22;58514;48.398;-4.274;2023-01-15T13:48:35;8.20;99.90
70269;DHT22;58514;48.398;-4.274;2023-01-15T13:51:05;8.20;99.90
70269;DHT22;58514;48.398;-4.274;2023-01-15T13:53:32;8.20;99.90
70269;DHT22;58514;48.398;-4.274;2023-01-15T13:56:00;8.10;99.90
70269;DHT22;58514;48.398;-4.274;2023-01-15T13:58:33;8.10;99.90
70269;DHT22;58514;48.398;-4.274;2023-01-15T14:01:00;8.00;99.90
70269;DHT22;58514;48.398;-4.274;2023-01-15T14:03:27;8.00;99.90
70269;DHT22;58514;48.398;-4.274;2023-01-15T14:05:54;8.00;99.90
70269;DHT22;58514;48.398;-4.274;2023-01-15T14:08:28;8.00;99.90
70269;DHT22;58514;48.398;-4.274;2023-01-15T14:11:00;7.90;99.90
70269;DHT22;58514;48.398;-4.274;2023-01-15T14:13:30;7.90;99.90
70269;DHT22;58514;48.398;-4.274;2023-01-15T14:18:42;7.90;99.90
70269;DHT22;58514;48.398;-4.274;2023-01-15T14:23:47;7.90;99.90
70269;DHT22;58514;48.398;-4.274;2023-01-15T14:27:01;7.90;99.90
70269;DHT22;58514;48.398;-4.274;2023-01-15T14:34:34;7.90;99.90
70269;DHT22;58514;48.398;-4.274;2023-01-15T14:37:04;7.90;99.90
70269;DHT22;58514;48.398;-4.274;2023-01-15T14:39:51;7.90;99.90
70269;DHT22;58514;48.398;-4.274;2023-01-15T14:47:35;7.80;99.90
70269;DHT22;58514;48.398;-4.274;2023-01-15T15:00:53;7.70;99.90
70269;DHT22;58514;48.398;-4.274;2023-01-15T15:03:25;7.70;99.90
70269;DHT22;58514;48.398;-4.274;2023-01-15T15:05:55;7.60;99.90
70269;DHT22;58514;48.398;-4.274;2023-01-15T15:08:20;7.70;99.90
70269;DHT22;58514;48.398;-4.274;2023-01-15T15:10:49;7.60;99.90
70269;DHT22;58514;48.398;-4.274;2023-01-15T15:16:03;7.60;99.90
70269;DHT22;58514;48.398;-4.274;2023-01-15T15:18:30;7.60;99.90
70269;DHT22;58514;48.398;-4.274;2023-01-15T15:23:42;7.60;99.90
70269;DHT22;58514;48.398;-4.274;2023-01-15T15:29:14;7.50;99.90
70269;DHT22;58514;48.398;-4.274;2023-01-15T15:34:17;7.50;99.90
70269;DHT22;58514;48.398;-4.274;2023-01-15T15:36:46;7.50;99.90
70269;DHT22;58514;48.398;-4.274;2023-01-15T15:39:19;7.50;99.90
70269;DHT22;58514;48.398;-4.274;2023-01-15T15:41:46;7.50;99.90
70269;DHT22;58514;48.398;-4.274;2023-01-15T15:44:34;7.50;99.90
70269;DHT22;58514;48.398;-4.274;2023-01-15T15:47:19;7.50;99.90
70269;DHT22;58514;48.398;-4.274;2023-01-15T15:50:04;7.50;99.90
70269;DHT22;58514;48.398;-4.274;2023-01-15T15:52:29;7.40;99.90
70269;DHT22;58514;48.398;-4.274;2023-01-15T15:54:56;7.40;99.90
70269;DHT22;58514;48.398;-4.274;2023-01-15T15:57:21;7.40;99.90
70269;DHT22;58514;48.398;-4.274;2023-01-15T15:59:47;7.40;99.90
70269;DHT22;58514;48.398;-4.274;2023-01-15T16:02:25;7.40;99.90
70269;DHT22;58514;48.398;-4.274;2023-01-15T16:04:53;7.40;99.90
70269;DHT22;58514;48.398;-4.274;2023-01-15T16:07:20;7.40;99.90
70269;DHT22;58514;48.398;-4.274;2023-01-15T16:09:48;7.30;99.90
70269;DHT22;58514;48.398;-4.274;2023-01-15T16:12:16;7.30;99.90
70269;DHT22;58514;48.398;-4.274;2023-01-15T16:14:42;7.30;99.90
70269;DHT22;58514;48.398;-4.274;2023-01-15T16:17:11;7.30;99.90
70269;DHT22;58514;48.398;-4.274;2023-01-15T16:19:37;7.30;99.90
70269;DHT22;58514;48.398;-4.274;2023-01-15T16:22:04;7.30;99.90
70269;DHT22;58514;48.398;-4.274;2023-01-15T16:24:30;7.30;99.90
70269;DHT22;58514;48.398;-4.274;2023-01-15T16:26:56;7.30;99.90
70269;DHT22;58514;48.398;-4.274;2023-01-15T16:29:30;7.30;99.90
70269;DHT22;58514;48.398;-4.274;2023-01-15T16:31:57;7.30;99.90
70269;DHT22;58514;48.398;-4.274;2023-01-15T16:34:25;7.30;99.90
70269;DHT22;58514;48.398;-4.274;2023-01-15T16:36:52;7.20;99.90
70269;DHT22;58514;48.398;-4.274;2023-01-15T16:41:46;7.20;99.90
70269;DHT22;58514;48.398;-4.274;2023-01-15T16:44:34;7.10;99.90
70269;DHT22;58514;48.398;-4.274;2023-01-15T16:47:00;7.10;99.90
70269;DHT22;58514;48.398;-4.274;2023-01-15T16:49:27;7.10;99.90
70269;DHT22;58514;48.398;-4.274;2023-01-15T16:51:54;7.00;99.90
70269;DHT22;58514;48.398;-4.274;2023-01-15T17:01:50;6.90;99.90
70269;DHT22;58514;48.398;-4.274;2023-01-15T17:06:56;6.90;99.90
70269;DHT22;58514;48.398;-4.274;2023-01-15T17:09:24;6.90;99.90
70269;DHT22;58514;48.398;-4.274;2023-01-15T17:11:50;6.90;99.90
70269;DHT22;58514;48.398;-4.274;2023-01-15T17:14:23;6.90;99.90
70269;DHT22;58514;48.398;-4.274;2023-01-15T17:17:13;6.90;99.90
70269;DHT22;58514;48.398;-4.274;2023-01-15T17:19:34;7.00;99.90
70269;DHT22;58514;48.398;-4.274;2023-01-15T17:22:00;7.00;99.90
70269;DHT22;58514;48.398;-4.274;2023-01-15T17:24:25;7.00;99.90
70269;DHT22;58514;48.398;-4.274;2023-01-15T17:26:51;7.00;99.90
70269;DHT22;58514;48.398;-4.274;2023-01-15T17:29:17;7.00;99.90
70269;DHT22;58514;48.398;-4.274;2023-01-15T17:31:42;7.10;99.90
70269;DHT22;58514;48.398;-4.274;2023-01-15T17:34:10;7.10;99.90
70269;DHT22;58514;48.398;-4.274;2023-01-15T17:36:35;7.10;99.90
70269;DHT22;58514;48.398;-4.274;2023-01-15T17:39:01;7.10;99.90
70269;DHT22;58514;48.398;-4.274;2023-01-15T17:41:27;7.10;99.90
70269;DHT22;58514;48.398;-4.274;2023-01-15T17:43:52;7.10;99.90
70269;DHT22;58514;48.398;-4.274;2023-01-15T17:46:18;7.20;99.90
70269;DHT22;58514;48.398;-4.274;2023-01-15T17:48:43;7.20;99.90
70269;DHT22;58514;48.398;-4.274;2023-01-15T17:51:10;7.20;99.90
70269;DHT22;58514;48.398;-4.274;2023-01-15T17:53:36;7.20;99.90
70269;DHT22;58514;48.398;-4.274;2023-01-15T17:56:02;7.20;99.90
70269;DHT22;58514;48.398;-4.274;2023-01-15T17:58:47;7.30;99.90
70269;DHT22;58514;48.398;-4.274;2023-01-15T18:01:32;7.40;99.90
70269;DHT22;58514;48.398;-4.274;2023-01-15T18:04:24;7.40;99.90
70269;DHT22;58514;48.398;-4.274;2023-01-15T18:07:09;7.40;99.90
70269;DHT22;58514;48.398;-4.274;2023-01-15T18:12:26;7.40;99.90
70269;DHT22;58514;48.398;-4.274;2023-01-15T18:14:52;7.50;99.90